sensor_id;sensor_type;location;lat;lon;timestamp;temperature;humidity
38183;DHT22;23991;52.430;10.586;2023-05-10T00:00:42;15.90;48.40
38183;DHT22;23991;52.430;10.586;2023-05-10T00:03:08;15.80;48.40
38183;DHT22;23991;52.430;10.586;2023-05-10T00:05:34;15.80;48.60
38183;DHT22;23991;52.430;10.586;2023-05-10T00:07:59;15.80;48.50
38183;DHT22;23991;52.430;10.586;2023-05-10T00:10:25;15.80;48.70
38183;DHT22;23991;52.430;10.586;2023-05-10T00:12:50;15.70;48.80
38183;DHT22;23991;52.430;10.586;2023-05-10T00:15:16;15.70;49.00
38183;DHT22;23991;52.430;10.586;2023-05-10T00:17:41;15.60;49.10
38183;DHT22;23991;52.430;10.586;2023-05-10T00:20:07;15.60;49.20
38183;DHT22;23991;52.430;10.586;2023-05-10T00:22:33;15.60;49.20
38183;DHT22;23991;52.430;10.586;2023-05-10T00:24:59;15.50;49.50
38183;DHT22;23991;52.430;10.586;2023-05-10T00:27:24;15.50;49.60
38183;DHT22;23991;52.430;10.586;2023-05-10T00:29:50;15.50;49.90
38183;DHT22;23991;52.430;10.586;2023-05-10T00:32:15;15.40;49.80
38183;DHT22;23991;52.430;10.586;2023-05-10T00:34:41;15.40;49.80
38183;DHT22;23991;52.430;10.586;2023-05-10T00:37:06;15.40;49.80
38183;DHT22;23991;52.430;10.586;2023-05-10T00:39:32;15.40;50.00
38183;DHT22;23991;52.430;10.586;2023-05-10T00:41:57;15.30;50.10
38183;DHT22;23991;52.430;10.586;2023-05-10T00:44:23;15.30;50.10
38183;DHT22;23991;52.430;10.586;2023-05-10T00:46:49;15.30;50.30
38183;DHT22;23991;52.430;10.586;2023-05-10T00:49:15;15.30;50.40
38183;DHT22;23991;52.430;10.586;2023-05-10T00:51:41;15.30;50.40
38183;DHT22;23991;52.430;10.586;2023-05-10T00:54:09;15.30;50.40
38183;DHT22;23991;52.430;10.586;2023-05-10T00:56:36;15.20;50.50
38183;DHT22;23991;52.430;10.586;2023-05-10T00:59:02;15.20;50.60
38183;DHT22;23991;52.430;10.586;2023-05-10T01:01:28;15.20;50.70
38183;DHT22;23991;52.430;10.586;2023-05-10T01:03:55;15.10;50.80
38183;DHT22;23991;52.430;10.586;2023-05-10T01:06:20;15.10;51.10
38183;DHT22;23991;52.430;10.586;2023-05-10T01:08:46;15.10;51.00
38183;DHT22;23991;52.430;10.586;2023-05-10T01:11:12;15.10;51.10
38183;DHT22;23991;52.430;10.586;2023-05-10T01:13:40;15.10;51.30
38183;DHT22;23991;52.430;10.586;2023-05-10T01:16:07;15.10;51.30
38183;DHT22;23991;52.430;10.586;2023-05-10T01:18:36;15.00;51.30
38183;DHT22;23991;52.430;10.586;2023-05-10T01:21:32;15.00;51.40
38183;DHT22;23991;52.430;10.586;2023-05-10T01:24:38;15.00;51.60
38183;DHT22;23991;52.430;10.586;2023-05-10T01:30:08;14.80;51.80
38183;DHT22;23991;52.430;10.586;2023-05-10T01:32:46;14.80;52.00
38183;DHT22;23991;52.430;10.586;2023-05-10T01:35:33;14.90;51.90
38183;DHT22;23991;52.430;10.586;2023-05-10T01:38:27;14.80;52.20
38183;DHT22;23991;52.430;10.586;2023-05-10T01:43:39;14.80;52.40
38183;DHT22;23991;52.430;10.586;2023-05-10T01:46:10;14.80;52.40
38183;DHT22;23991;52.430;10.586;2023-05-10T01:48:47;14.70;52.30
38183;DHT22;23991;52.430;10.586;2023-05-10T01:51:19;14.70;52.40
38183;DHT22;23991;52.430;10.586;2023-05-10T01:53:46;14.70;52.50
38183;DHT22;23991;52.430;10.586;2023-05-10T01:56:14;14.60;52.50
38183;DHT22;23991;52.430;10.586;2023-05-10T01:58:43;14.60;52.60
38183;DHT22;23991;52.430;10.586;2023-05-10T02:01:11;14.60;52.70
38183;DHT22;23991;52.430;10.586;2023-05-10T02:03:38;14.60;53.00
38183;DHT22;23991;52.430;10.586;2023-05-10T02:06:04;14.50;52.90
38183;DHT22;23991;52.430;10.586;2023-05-10T02:08:30;14.60;53.00
38183;DHT22;23991;52.430;10.586;2023-05-10T02:10:57;14.50;53.10
38183;DHT22;23991;52.430;10.586;2023-05-10T02:13:24;14.50;53.20
38183;DHT22;23991;52.430;10.586;2023-05-10T02:15:51;14.40;53.20
38183;DHT22;23991;52.430;10.586;2023-05-10T02:18:18;14.40;53.30
38183;DHT22;23991;52.430;10.586;2023-05-10T02:20:46;14.40;53.40
38183;DHT22;23991;52.430;10.586;2023-05-10T02:23:12;14.40;53.20
38183;DHT22;23991;52.430;10.586;2023-05-10T02:25:39;14.40;53.40
38183;DHT22;23991;52.430;10.586;2023-05-10T02:28:06;14.40;53.50
38183;DHT22;23991;52.430;10.586;2023-05-10T02:30:33;14.40;53.50
38183;DHT22;23991;52.430;10.586;2023-05-10T02:32:59;14.30;53.70
38183;DHT22;23991;52.430;10.586;2023-05-10T02:35:26;14.40;53.80
38183;DHT22;23991;52.430;10.586;2023-05-10T02:37:52;14.30;53.80
38183;DHT22;23991;52.430;10.586;2023-05-10T02:40:19;14.30;54.00
38183;DHT22;23991;52.430;10.586;2023-05-10T02:42:47;14.30;54.10
38183;DHT22;23991;52.430;10.586;2023-05-10T02:45:19;14.30;54.20
38183;DHT22;23991;52.430;10.586;2023-05-10T02:47:45;14.20;54.20
38183;DHT22;23991;52.430;10.586;2023-05-10T02:50:11;14.30;54.20
38183;DHT22;23991;52.430;10.586;2023-05-10T02:52:44;14.30;54.20
38183;DHT22;23991;52.430;10.586;2023-05-10T02:55:13;14.30;54.20
38183;DHT22;23991;52.430;10.586;2023-05-10T02:57:51;14.20;54.40
38183;DHT22;23991;52.430;10.586;2023-05-10T03:00:17;14.20;54.40
38183;DHT22;23991;52.430;10.586;2023-05-10T03:02:43;14.20;54.50
38183;DHT22;23991;52.430;10.586;2023-05-10T03:05:09;14.20;54.60
38183;DHT22;23991;52.430;10.586;2023-05-10T03:07:34;14.10;54.70
38183;DHT22;23991;52.430;10.586;2023-05-10T03:10:00;14.10;54.80
38183;DHT22;23991;52.430;10.586;2023-05-10T03:18:44;14.00;55.20
38183;DHT22;23991;52.430;10.586;2023-05-10T03:21:13;14.00;55.30
38183;DHT22;23991;52.430;10.586;2023-05-10T03:23:43;14.00;55.50
38183;DHT22;23991;52.430;10.586;2023-05-10T03:26:09;14.00;55.50
38183;DHT22;23991;52.430;10.586;2023-05-10T03:28:37;14.00;55.50
38183;DHT22;23991;52.430;10.586;2023-05-10T03:31:04;14.00;55.60
38183;DHT22;23991;52.430;10.586;2023-05-10T03:33:31;14.00;55.60
38183;DHT22;23991;52.430;10.586;2023-05-10T03:35:57;13.90;55.60
38183;DHT22;23991;52.430;10.586;2023-05-10T03:38:22;14.00;55.70
38183;DHT22;23991;52.430;10.586;2023-05-10T03:40:48;14.00;55.70
38183;DHT22;23991;52.430;10.586;2023-05-10T03:43:13;14.00;55.70
38183;DHT22;23991;52.430;10.586;2023-05-10T03:45:39;14.10;55.60
38183;DHT22;23991;52.430;10.586;2023-05-10T03:48:05;14.10;55.50
38183;DHT22;23991;52.430;10.586;2023-05-10T03:50:31;14.10;55.50
38183;DHT22;23991;52.430;10.586;2023-05-10T03:52:56;14.20;55.40
38183;DHT22;23991;52.430;10.586;2023-05-10T03:55:23;14.20;55.30
38183;DHT22;23991;52.430;10.586;2023-05-10T03:57:48;14.30;55.20
38183;DHT22;23991;52.430;10.586;2023-05-10T04:00:15;14.30;55.10
38183;DHT22;23991;52.430;10.586;2023-05-10T04:02:40;14.30;55.00
38183;DHT22;23991;52.430;10.586;2023-05-10T04:05:06;14.40;55.00
38183;DHT22;23991;52.430;10.586;2023-05-10T04:07:32;14.40;54.80
38183;DHT22;23991;52.430;10.586;2023-05-10T04:09:57;14.60;54.60
38183;DHT22;23991;52.430;10.586;2023-05-10T04:12:23;14.60;54.60
38183;DHT22;23991;52.430;10.586;2023-05-10T04:14:49;14.60;54.50
38183;DHT22;23991;52.430;10.586;2023-05-10T04:17:14;14.70;54.30
38183;DHT22;23991;52.430;10.586;2023-05-10T04:19:40;14.80;54.00
38183;DHT22;23991;52.430;10.586;2023-05-10T04:22:05;14.80;53.90
38183;DHT22;23991;52.430;10.586;2023-05-10T04:24:31;14.90;53.60
38183;DHT22;23991;52.430;10.586;2023-05-10T04:26:56;15.00;53.60
38183;DHT22;23991;52.430;10.586;2023-05-10T04:29:22;15.10;53.70
38183;DHT22;23991;52.430;10.586;2023-05-10T04:31:47;15.10;53.50
38183;DHT22;23991;52.430;10.586;2023-05-10T04:34:14;15.20;53.30
38183;DHT22;23991;52.430;10.586;2023-05-10T04:36:39;15.30;53.00
38183;DHT22;23991;52.430;10.586;2023-05-10T04:39:05;15.30;52.70
38183;DHT22;23991;52.430;10.586;2023-05-10T04:41:30;15.50;52.50
38183;DHT22;23991;52.430;10.586;2023-05-10T04:43:56;15.60;52.20
38183;DHT22;23991;52.430;10.586;2023-05-10T04:46:22;15.70;52.20
38183;DHT22;23991;52.430;10.586;2023-05-10T04:48:47;15.80;52.00
38183;DHT22;23991;52.430;10.586;2023-05-10T04:51:13;15.80;52.00
38183;DHT22;23991;52.430;10.586;2023-05-10T04:53:39;16.00;51.50
38183;DHT22;23991;52.430;10.586;2023-05-10T04:56:05;16.00;51.40
38183;DHT22;23991;52.430;10.586;2023-05-10T04:58:31;16.20;51.30
38183;DHT22;23991;52.430;10.586;2023-05-10T05:00:56;16.20;51.30
38183;DHT22;23991;52.430;10.586;2023-05-10T05:03:22;16.30;51.20
38183;DHT22;23991;52.430;10.586;2023-05-10T05:05:48;16.30;51.10
38183;DHT22;23991;52.430;10.586;2023-05-10T05:08:13;16.40;51.00
38183;DHT22;23991;52.430;10.586;2023-05-10T05:10:39;16.50;51.10
38183;DHT22;23991;52.430;10.586;2023-05-10T05:13:07;16.50;51.10
38183;DHT22;23991;52.430;10.586;2023-05-10T05:15:36;16.60;50.80
38183;DHT22;23991;52.430;10.586;2023-05-10T05:18:01;16.70;50.60
38183;DHT22;23991;52.430;10.586;2023-05-10T05:20:27;16.80;50.60
38183;DHT22;23991;52.430;10.586;2023-05-10T05:22:52;16.90;50.30
38183;DHT22;23991;52.430;10.586;2023-05-10T05:25:18;16.90;50.00
38183;DHT22;23991;52.430;10.586;2023-05-10T05:27:43;16.90;49.90
38183;DHT22;23991;52.430;10.586;2023-05-10T05:30:09;17.00;50.00
38183;DHT22;23991;52.430;10.586;2023-05-10T05:32:35;16.90;50.20
38183;DHT22;23991;52.430;10.586;2023-05-10T05:35:00;16.90;50.00
38183;DHT22;23991;52.430;10.586;2023-05-10T05:37:26;16.90;50.10
38183;DHT22;23991;52.430;10.586;2023-05-10T05:39:52;16.90;50.00
38183;DHT22;23991;52.430;10.586;2023-05-10T05:42:17;17.00;50.00
38183;DHT22;23991;52.430;10.586;2023-05-10T05:44:44;16.90;50.20
38183;DHT22;23991;52.430;10.586;2023-05-10T05:47:10;16.90;50.20
38183;DHT22;23991;52.430;10.586;2023-05-10T05:49:35;17.00;50.20
38183;DHT22;23991;52.430;10.586;2023-05-10T05:52:02;17.00;50.20
38183;DHT22;23991;52.430;10.586;2023-05-10T05:54:29;17.00;50.50
38183;DHT22;23991;52.430;10.586;2023-05-10T05:56:58;17.10;50.30
38183;DHT22;23991;52.430;10.586;2023-05-10T05:59:24;17.00;50.60
38183;DHT22;23991;52.430;10.586;2023-05-10T06:01:49;17.20;50.50
38183;DHT22;23991;52.430;10.586;2023-05-10T06:04:15;17.20;50.50
38183;DHT22;23991;52.430;10.586;2023-05-10T06:06:41;17.20;50.90
38183;DHT22;23991;52.430;10.586;2023-05-10T06:09:08;17.30;50.50
38183;DHT22;23991;52.430;10.586;2023-05-10T06:11:36;17.40;49.90
38183;DHT22;23991;52.430;10.586;2023-05-10T06:14:02;17.50;49.70
38183;DHT22;23991;52.430;10.586;2023-05-10T06:16:30;17.70;49.50
38183;DHT22;23991;52.430;10.586;2023-05-10T06:18:55;17.70;49.60
38183;DHT22;23991;52.430;10.586;2023-05-10T06:21:21;17.80;49.70
38183;DHT22;23991;52.430;10.586;2023-05-10T06:23:46;17.80;49.40
38183;DHT22;23991;52.430;10.586;2023-05-10T06:26:12;17.80;49.40
38183;DHT22;23991;52.430;10.586;2023-05-10T06:28:39;17.90;49.40
38183;DHT22;23991;52.430;10.586;2023-05-10T06:31:05;18.10;48.90
38183;DHT22;23991;52.430;10.586;2023-05-10T06:33:32;18.30;48.60
38183;DHT22;23991;52.430;10.586;2023-05-10T06:35:57;18.30;48.30
38183;DHT22;23991;52.430;10.586;2023-05-10T06:38:23;18.60;47.70
38183;DHT22;23991;52.430;10.586;2023-05-10T06:40:49;18.60;47.60
38183;DHT22;23991;52.430;10.586;2023-05-10T06:43:14;18.40;48.10
38183;DHT22;23991;52.430;10.586;2023-05-10T06:45:40;18.50;48.20
38183;DHT22;23991;52.430;10.586;2023-05-10T06:48:06;18.70;48.10
38183;DHT22;23991;52.430;10.586;2023-05-10T06:50:32;18.80;47.10
38183;DHT22;23991;52.430;10.586;2023-05-10T06:52:59;18.90;46.80
38183;DHT22;23991;52.430;10.586;2023-05-10T06:55:24;19.10;46.60
38183;DHT22;23991;52.430;10.586;2023-05-10T06:57:50;19.20;46.40
38183;DHT22;23991;52.430;10.586;2023-05-10T07:00:17;19.30;46.20
38183;DHT22;23991;52.430;10.586;2023-05-10T07:02:42;19.30;46.30
38183;DHT22;23991;52.430;10.586;2023-05-10T07:05:08;19.40;46.10
38183;DHT22;23991;52.430;10.586;2023-05-10T07:07:34;19.50;45.80
38183;DHT22;23991;52.430;10.586;2023-05-10T07:09:59;19.50;46.00
38183;DHT22;23991;52.430;10.586;2023-05-10T07:12:25;19.50;46.20
38183;DHT22;23991;52.430;10.586;2023-05-10T07:14:51;19.50;46.20
38183;DHT22;23991;52.430;10.586;2023-05-10T07:17:17;19.50;46.60
38183;DHT22;23991;52.430;10.586;2023-05-10T07:19:42;19.50;46.50
38183;DHT22;23991;52.430;10.586;2023-05-10T07:22:08;19.40;47.20
38183;DHT22;23991;52.430;10.586;2023-05-10T07:24:34;19.70;46.50
38183;DHT22;23991;52.430;10.586;2023-05-10T07:27:00;19.60;46.80
38183;DHT22;23991;52.430;10.586;2023-05-10T07:29:26;19.70;46.20
38183;DHT22;23991;52.430;10.586;2023-05-10T07:31:51;19.80;46.00
38183;DHT22;23991;52.430;10.586;2023-05-10T07:34:17;19.80;46.50
38183;DHT22;23991;52.430;10.586;2023-05-10T07:36:42;19.80;47.40
38183;DHT22;23991;52.430;10.586;2023-05-10T07:39:08;19.60;48.70
38183;DHT22;23991;52.430;10.586;2023-05-10T07:41:33;19.60;49.50
38183;DHT22;23991;52.430;10.586;2023-05-10T07:43:59;19.60;49.70
38183;DHT22;23991;52.430;10.586;2023-05-10T07:46:25;19.50;50.00
38183;DHT22;23991;52.430;10.586;2023-05-10T07:48:50;19.60;49.90
38183;DHT22;23991;52.430;10.586;2023-05-10T07:51:16;19.80;49.90
38183;DHT22;23991;52.430;10.586;2023-05-10T07:53:41;19.80;50.10
38183;DHT22;23991;52.430;10.586;2023-05-10T07:56:31;19.80;51.10
38183;DHT22;23991;52.430;10.586;2023-05-10T07:58:57;20.00;49.70
38183;DHT22;23991;52.430;10.586;2023-05-10T08:01:23;20.00;49.90
38183;DHT22;23991;52.430;10.586;2023-05-10T08:03:49;20.10;49.50
38183;DHT22;23991;52.430;10.586;2023-05-10T08:06:17;20.30;49.30
38183;DHT22;23991;52.430;10.586;2023-05-10T08:08:42;20.20;50.40
38183;DHT22;23991;52.430;10.586;2023-05-10T08:11:08;20.30;49.10
38183;DHT22;23991;52.430;10.586;2023-05-10T08:13:33;20.20;49.40
38183;DHT22;23991;52.430;10.586;2023-05-10T08:15:59;20.40;49.10
38183;DHT22;23991;52.430;10.586;2023-05-10T08:18:25;20.60;49.60
38183;DHT22;23991;52.430;10.586;2023-05-10T08:20:51;20.50;50.20
38183;DHT22;23991;52.430;10.586;2023-05-10T08:23:16;20.70;49.20
38183;DHT22;23991;52.430;10.586;2023-05-10T08:25:42;20.80;49.30
38183;DHT22;23991;52.430;10.586;2023-05-10T08:28:07;20.80;49.90
38183;DHT22;23991;52.430;10.586;2023-05-10T08:30:33;20.80;50.10
38183;DHT22;23991;52.430;10.586;2023-05-10T08:32:58;20.90;49.70
38183;DHT22;23991;52.430;10.586;2023-05-10T08:35:24;20.80;50.40
38183;DHT22;23991;52.430;10.586;2023-05-10T08:37:50;20.90;50.20
38183;DHT22;23991;52.430;10.586;2023-05-10T08:40:19;20.90;50.70
38183;DHT22;23991;52.430;10.586;2023-05-10T08:42:51;20.80;51.40
38183;DHT22;23991;52.430;10.586;2023-05-10T08:45:20;20.70;51.80
38183;DHT22;23991;52.430;10.586;2023-05-10T08:47:46;20.80;51.70
38183;DHT22;23991;52.430;10.586;2023-05-10T08:50:12;20.70;52.20
38183;DHT22;23991;52.430;10.586;2023-05-10T08:52:40;20.60;52.90
38183;DHT22;23991;52.430;10.586;2023-05-10T08:55:06;20.50;53.20
38183;DHT22;23991;52.430;10.586;2023-05-10T08:57:32;20.60;53.60
38183;DHT22;23991;52.430;10.586;2023-05-10T08:59:59;20.60;53.70
38183;DHT22;23991;52.430;10.586;2023-05-10T09:02:26;20.50;53.80
38183;DHT22;23991;52.430;10.586;2023-05-10T09:04:52;20.40;54.30
38183;DHT22;23991;52.430;10.586;2023-05-10T09:07:18;20.30;55.30
38183;DHT22;23991;52.430;10.586;2023-05-10T09:09:44;20.30;55.50
38183;DHT22;23991;52.430;10.586;2023-05-10T09:12:11;20.10;55.90
38183;DHT22;23991;52.430;10.586;2023-05-10T09:14:37;20.20;56.40
38183;DHT22;23991;52.430;10.586;2023-05-10T09:17:04;20.10;56.70
38183;DHT22;23991;52.430;10.586;2023-05-10T09:19:30;20.10;57.40
38183;DHT22;23991;52.430;10.586;2023-05-10T09:21:55;20.10;56.70
38183;DHT22;23991;52.430;10.586;2023-05-10T09:24:25;20.00;58.00
38183;DHT22;23991;52.430;10.586;2023-05-10T09:26:51;20.30;57.80
38183;DHT22;23991;52.430;10.586;2023-05-10T09:29:16;20.30;57.80
38183;DHT22;23991;52.430;10.586;2023-05-10T09:31:47;20.40;57.10
38183;DHT22;23991;52.430;10.586;2023-05-10T09:34:20;20.50;56.60
38183;DHT22;23991;52.430;10.586;2023-05-10T09:36:56;20.60;57.20
38183;DHT22;23991;52.430;10.586;2023-05-10T09:39:38;20.70;57.40
38183;DHT22;23991;52.430;10.586;2023-05-10T09:42:05;20.80;58.10
38183;DHT22;23991;52.430;10.586;2023-05-10T09:44:32;20.80;57.70
38183;DHT22;23991;52.430;10.586;2023-05-10T09:46:58;20.80;57.30
38183;DHT22;23991;52.430;10.586;2023-05-10T09:49:24;20.90;57.50
38183;DHT22;23991;52.430;10.586;2023-05-10T09:52:16;21.00;57.00
38183;DHT22;23991;52.430;10.586;2023-05-10T09:54:52;21.00;57.00
38183;DHT22;23991;52.430;10.586;2023-05-10T09:57:20;21.10;57.00
38183;DHT22;23991;52.430;10.586;2023-05-10T09:59:47;21.20;56.60
38183;DHT22;23991;52.430;10.586;2023-05-10T10:02:13;21.10;57.40
38183;DHT22;23991;52.430;10.586;2023-05-10T10:04:40;21.00;57.80
38183;DHT22;23991;52.430;10.586;2023-05-10T10:07:06;21.10;57.40
38183;DHT22;23991;52.430;10.586;2023-05-10T10:09:32;20.90;58.20
38183;DHT22;23991;52.430;10.586;2023-05-10T10:11:59;20.90;58.10
38183;DHT22;23991;52.430;10.586;2023-05-10T10:14:25;21.00;58.50
38183;DHT22;23991;52.430;10.586;2023-05-10T10:16:51;21.00;58.60
38183;DHT22;23991;52.430;10.586;2023-05-10T10:19:20;21.20;58.40
38183;DHT22;23991;52.430;10.586;2023-05-10T10:21:49;20.90;59.00
38183;DHT22;23991;52.430;10.586;2023-05-10T10:24:15;20.90;59.40
38183;DHT22;23991;52.430;10.586;2023-05-10T10:26:42;20.80;59.80
38183;DHT22;23991;52.430;10.586;2023-05-10T10:29:36;20.60;60.90
38183;DHT22;23991;52.430;10.586;2023-05-10T10:34:57;20.30;62.30
38183;DHT22;23991;52.430;10.586;2023-05-10T10:37:22;20.30;62.30
38183;DHT22;23991;52.430;10.586;2023-05-10T10:39:49;20.30;62.60
38183;DHT22;23991;52.430;10.586;2023-05-10T10:42:44;20.40;62.60
38183;DHT22;23991;52.430;10.586;2023-05-10T10:45:12;20.50;62.90
38183;DHT22;23991;52.430;10.586;2023-05-10T10:47:38;20.70;63.10
38183;DHT22;23991;52.430;10.586;2023-05-10T10:52:35;20.90;62.50
38183;DHT22;23991;52.430;10.586;2023-05-10T10:55:02;21.00;61.50
38183;DHT22;23991;52.430;10.586;2023-05-10T10:57:31;20.90;61.60
38183;DHT22;23991;52.430;10.586;2023-05-10T11:00:21;21.00;61.80
38183;DHT22;23991;52.430;10.586;2023-05-10T11:02:52;21.10;60.90
38183;DHT22;23991;52.430;10.586;2023-05-10T11:10:36;21.40;59.40
38183;DHT22;23991;52.430;10.586;2023-05-10T11:13:03;21.40;59.20
38183;DHT22;23991;52.430;10.586;2023-05-10T11:15:37;21.30;59.70
38183;DHT22;23991;52.430;10.586;2023-05-10T11:18:20;21.40;59.90
38183;DHT22;23991;52.430;10.586;2023-05-10T11:21:13;21.30;59.70
38183;DHT22;23991;52.430;10.586;2023-05-10T11:26:09;21.30;59.40
38183;DHT22;23991;52.430;10.586;2023-05-10T11:28:45;21.40;59.20
38183;DHT22;23991;52.430;10.586;2023-05-10T11:31:17;21.30;59.00
38183;DHT22;23991;52.430;10.586;2023-05-10T11:33:48;21.30;59.10
38183;DHT22;23991;52.430;10.586;2023-05-10T11:36:18;21.20;59.70
38183;DHT22;23991;52.430;10.586;2023-05-10T11:38:45;21.00;60.00
38183;DHT22;23991;52.430;10.586;2023-05-10T11:41:11;21.10;60.30
38183;DHT22;23991;52.430;10.586;2023-05-10T11:43:39;20.80;61.00
38183;DHT22;23991;52.430;10.586;2023-05-10T11:46:10;20.80;61.00
38183;DHT22;23991;52.430;10.586;2023-05-10T11:48:38;20.70;61.40
38183;DHT22;23991;52.430;10.586;2023-05-10T11:51:04;20.60;61.80
38183;DHT22;23991;52.430;10.586;2023-05-10T11:53:31;20.50;62.30
38183;DHT22;23991;52.430;10.586;2023-05-10T11:56:08;20.40;63.00
38183;DHT22;23991;52.430;10.586;2023-05-10T11:58:35;20.60;62.90
38183;DHT22;23991;52.430;10.586;2023-05-10T12:01:02;20.50;63.10
38183;DHT22;23991;52.430;10.586;2023-05-10T12:03:28;20.70;62.60
38183;DHT22;23991;52.430;10.586;2023-05-10T12:05:55;20.80;61.70
38183;DHT22;23991;52.430;10.586;2023-05-10T12:08:26;20.80;62.10
38183;DHT22;23991;52.430;10.586;2023-05-10T12:10:53;20.80;62.30
38183;DHT22;23991;52.430;10.586;2023-05-10T12:13:20;20.80;62.20
38183;DHT22;23991;52.430;10.586;2023-05-10T12:15:46;20.80;62.50
38183;DHT22;23991;52.430;10.586;2023-05-10T12:18:13;20.90;62.00
38183;DHT22;23991;52.430;10.586;2023-05-10T12:20:40;21.10;60.90
38183;DHT22;23991;52.430;10.586;2023-05-10T12:23:09;21.10;62.00
38183;DHT22;23991;52.430;10.586;2023-05-10T12:25:36;21.20;61.00
38183;DHT22;23991;52.430;10.586;2023-05-10T12:28:04;21.10;61.30
38183;DHT22;23991;52.430;10.586;2023-05-10T12:30:32;21.30;61.10
38183;DHT22;23991;52.430;10.586;2023-05-10T12:33:02;21.50;60.60
38183;DHT22;23991;52.430;10.586;2023-05-10T12:35:32;21.80;59.80
38183;DHT22;23991;52.430;10.586;2023-05-10T12:37:58;22.00;59.40
38183;DHT22;23991;52.430;10.586;2023-05-10T12:40:24;22.20;57.70
38183;DHT22;23991;52.430;10.586;2023-05-10T12:42:50;21.80;58.30
38183;DHT22;23991;52.430;10.586;2023-05-10T12:45:17;21.70;59.50
38183;DHT22;23991;52.430;10.586;2023-05-10T12:47:43;22.00;58.10
38183;DHT22;23991;52.430;10.586;2023-05-10T12:50:08;22.00;59.30
38183;DHT22;23991;52.430;10.586;2023-05-10T12:52:34;22.00;59.10
38183;DHT22;23991;52.430;10.586;2023-05-10T12:55:00;22.10;58.70
38183;DHT22;23991;52.430;10.586;2023-05-10T12:57:26;22.10;58.10
38183;DHT22;23991;52.430;10.586;2023-05-10T12:59:52;22.20;58.10
38183;DHT22;23991;52.430;10.586;2023-05-10T13:02:18;22.40;56.70
38183;DHT22;23991;52.430;10.586;2023-05-10T13:04:47;22.50;56.70
38183;DHT22;23991;52.430;10.586;2023-05-10T13:07:13;22.80;55.70
38183;DHT22;23991;52.430;10.586;2023-05-10T13:09:39;22.80;54.60
38183;DHT22;23991;52.430;10.586;2023-05-10T13:12:04;23.00;54.30
38183;DHT22;23991;52.430;10.586;2023-05-10T13:14:30;23.30;53.70
38183;DHT22;23991;52.430;10.586;2023-05-10T13:16:56;23.20;53.70
38183;DHT22;23991;52.430;10.586;2023-05-10T13:19:21;23.30;53.20
38183;DHT22;23991;52.430;10.586;2023-05-10T13:21:47;23.60;52.80
38183;DHT22;23991;52.430;10.586;2023-05-10T13:24:13;24.00;51.60
38183;DHT22;23991;52.430;10.586;2023-05-10T13:26:42;24.00;51.50
38183;DHT22;23991;52.430;10.586;2023-05-10T13:29:08;23.80;51.90
38183;DHT22;23991;52.430;10.586;2023-05-10T13:31:34;24.10;51.30
38183;DHT22;23991;52.430;10.586;2023-05-10T13:34:00;24.10;52.20
38183;DHT22;23991;52.430;10.586;2023-05-10T13:36:25;24.10;51.50
38183;DHT22;23991;52.430;10.586;2023-05-10T13:38:51;24.20;52.00
38183;DHT22;23991;52.430;10.586;2023-05-10T13:41:17;24.20;52.30
38183;DHT22;23991;52.430;10.586;2023-05-10T13:43:43;24.20;51.60
38183;DHT22;23991;52.430;10.586;2023-05-10T13:46:11;24.60;50.40
38183;DHT22;23991;52.430;10.586;2023-05-10T13:48:37;24.60;50.00
38183;DHT22;23991;52.430;10.586;2023-05-10T13:51:03;24.70;50.30
38183;DHT22;23991;52.430;10.586;2023-05-10T13:53:29;24.80;49.90
38183;DHT22;23991;52.430;10.586;2023-05-10T13:55:54;24.90;49.60
38183;DHT22;23991;52.430;10.586;2023-05-10T13:58:20;25.00;48.60
38183;DHT22;23991;52.430;10.586;2023-05-10T14:00:45;25.20;48.10
38183;DHT22;23991;52.430;10.586;2023-05-10T14:03:11;25.40;47.60
38183;DHT22;23991;52.430;10.586;2023-05-10T14:05:36;25.50;46.80
38183;DHT22;23991;52.430;10.586;2023-05-10T14:08:02;25.70;47.10
38183;DHT22;23991;52.430;10.586;2023-05-10T14:10:28;25.50;46.90
38183;DHT22;23991;52.430;10.586;2023-05-10T14:12:54;25.60;47.00
38183;DHT22;23991;52.430;10.586;2023-05-10T14:15:19;25.60;46.60
38183;DHT22;23991;52.430;10.586;2023-05-10T14:17:45;25.90;46.20
38183;DHT22;23991;52.430;10.586;2023-05-10T14:20:11;26.00;46.40
38183;DHT22;23991;52.430;10.586;2023-05-10T14:22:36;25.80;46.00
38183;DHT22;23991;52.430;10.586;2023-05-10T14:25:02;25.80;45.80
38183;DHT22;23991;52.430;10.586;2023-05-10T14:27:28;25.80;46.30
38183;DHT22;23991;52.430;10.586;2023-05-10T14:29:53;25.70;46.80
38183;DHT22;23991;52.430;10.586;2023-05-10T14:32:19;25.70;46.90
38183;DHT22;23991;52.430;10.586;2023-05-10T14:34:45;25.20;47.20
38183;DHT22;23991;52.430;10.586;2023-05-10T14:37:13;24.80;48.20
38183;DHT22;23991;52.430;10.586;2023-05-10T14:39:38;25.00;48.20
38183;DHT22;23991;52.430;10.586;2023-05-10T14:42:04;25.10;46.90
38183;DHT22;23991;52.430;10.586;2023-05-10T14:44:30;25.10;47.20
38183;DHT22;23991;52.430;10.586;2023-05-10T14:46:55;24.90;48.40
38183;DHT22;23991;52.430;10.586;2023-05-10T14:49:22;25.00;48.00
38183;DHT22;23991;52.430;10.586;2023-05-10T14:51:48;24.80;48.80
38183;DHT22;23991;52.430;10.586;2023-05-10T14:54:13;24.90;47.80
38183;DHT22;23991;52.430;10.586;2023-05-10T14:56:39;24.90;48.00
38183;DHT22;23991;52.430;10.586;2023-05-10T14:59:06;24.90;48.90
38183;DHT22;23991;52.430;10.586;2023-05-10T15:01:32;24.80;48.50
38183;DHT22;23991;52.430;10.586;2023-05-10T15:04:00;24.70;49.00
38183;DHT22;23991;52.430;10.586;2023-05-10T15:06:33;24.80;48.50
38183;DHT22;23991;52.430;10.586;2023-05-10T15:08:59;24.90;47.70
38183;DHT22;23991;52.430;10.586;2023-05-10T15:11:25;24.90;47.40
38183;DHT22;23991;52.430;10.586;2023-05-10T15:13:51;24.90;47.70
38183;DHT22;23991;52.430;10.586;2023-05-10T15:16:16;25.10;47.30
38183;DHT22;23991;52.430;10.586;2023-05-10T15:18:42;25.00;47.50
38183;DHT22;23991;52.430;10.586;2023-05-10T15:21:08;24.80;48.10
38183;DHT22;23991;52.430;10.586;2023-05-10T15:23:34;24.90;47.40
38183;DHT22;23991;52.430;10.586;2023-05-10T15:26:00;24.90;47.50
38183;DHT22;23991;52.430;10.586;2023-05-10T15:28:26;24.90;47.80
38183;DHT22;23991;52.430;10.586;2023-05-10T15:30:51;25.00;47.00
38183;DHT22;23991;52.430;10.586;2023-05-10T15:33:17;25.10;47.00
38183;DHT22;23991;52.430;10.586;2023-05-10T15:35:42;25.00;46.90
38183;DHT22;23991;52.430;10.586;2023-05-10T15:38:09;24.80;47.50
38183;DHT22;23991;52.430;10.586;2023-05-10T15:40:35;24.70;48.20